createdAt,value
2019-06-20T00:00:40.191Z,92.10
2019-06-20T00:03:08.203Z,92.30
2019-06-20T00:05:37.012Z,92.40
2019-06-20T00:08:05.833Z,92.20
2019-06-20T00:10:34.624Z,92.30
2019-06-20T00:13:06.053Z,92.30
2019-06-20T00:15:37.796Z,92.00
2019-06-20T00:18:08.168Z,92.10
2019-06-20T00:20:37.151Z,91.90
2019-06-20T00:23:06.027Z,91.80
2019-06-20T00:25:34.897Z,92.10
2019-06-20T00:28:03.703Z,92.10
2019-06-20T00:30:33.598Z,92.00
2019-06-20T00:33:02.425Z,91.50
2019-06-20T00:35:31.291Z,91.90
2019-06-20T00:38:00.080Z,91.90
2019-06-20T00:40:28.855Z,91.90
2019-06-20T00:42:57.747Z,91.80
2019-06-20T00:45:26.611Z,91.70
2019-06-20T00:47:55.634Z,91.70
2019-06-20T00:50:24.630Z,91.80
2019-06-20T00:52:53.516Z,91.60
2019-06-20T00:55:22.370Z,91.80
2019-06-20T00:57:51.283Z,92.10
2019-06-20T01:00:20.660Z,92.30
2019-06-20T01:02:49.433Z,92.20
2019-06-20T01:05:18.383Z,92.40
2019-06-20T01:07:47.165Z,92.90
2019-06-20T01:10:17.596Z,92.70
2019-06-20T01:12:46.447Z,92.70
2019-06-20T01:15:15.656Z,92.60
2019-06-20T01:17:44.430Z,92.50
2019-06-20T01:20:13.706Z,92.00
2019-06-20T01:22:42.598Z,91.90
2019-06-20T01:25:11.570Z,92.00
2019-06-20T01:27:44.252Z,91.60
2019-06-20T01:30:13.846Z,91.90
2019-06-20T01:32:42.852Z,92.20
2019-06-20T01:35:13.267Z,92.20
2019-06-20T01:37:42.089Z,92.10
2019-06-20T01:40:11.011Z,92.00
2019-06-20T01:42:39.859Z,92.10
2019-06-20T01:45:10.702Z,92.10
2019-06-20T01:47:39.486Z,92.10
2019-06-20T01:50:08.377Z,91.90
2019-06-20T01:52:37.168Z,91.90
2019-06-20T01:55:08.108Z,91.90
2019-06-20T01:57:36.978Z,91.80
2019-06-20T02:00:07.359Z,91.80
2019-06-20T02:02:36.242Z,92.00
2019-06-20T02:05:08.437Z,92.00
2019-06-20T02:07:37.360Z,91.70
2019-06-20T02:10:07.524Z,92.00
2019-06-20T02:12:36.383Z,91.90
2019-06-20T02:15:06.091Z,92.50
2019-06-20T02:17:34.988Z,92.70
2019-06-20T02:20:04.713Z,92.50
2019-06-20T02:22:33.538Z,92.30
2019-06-20T02:25:02.418Z,92.60
2019-06-20T02:27:31.281Z,92.30
2019-06-20T02:30:00.189Z,92.40
2019-06-20T02:32:28.979Z,92.40
2019-06-20T02:34:57.763Z,92.40
2019-06-20T02:37:26.644Z,92.40
2019-06-20T02:39:55.504Z,92.30
2019-06-20T02:42:25.862Z,92.50
2019-06-20T02:44:54.723Z,92.60
2019-06-20T02:47:23.550Z,92.60
2019-06-20T02:49:52.418Z,93.00
2019-06-20T02:52:21.347Z,93.20
2019-06-20T02:54:50.199Z,93.30
2019-06-20T02:57:19.121Z,93.30
2019-06-20T02:59:47.979Z,93.10
2019-06-20T03:02:16.906Z,92.80
2019-06-20T03:04:45.842Z,93.00
2019-06-20T03:07:14.784Z,93.00
2019-06-20T03:09:43.675Z,93.00
2019-06-20T03:12:12.484Z,92.80
2019-06-20T03:14:45.591Z,92.90
2019-06-20T03:17:11.816Z,92.70
2019-06-20T03:19:40.666Z,92.70
2019-06-20T03:22:09.504Z,92.70
2019-06-20T03:24:38.324Z,92.50
2019-06-20T03:27:08.929Z,92.40
2019-06-20T03:29:37.832Z,92.10
2019-06-20T03:32:06.673Z,92.20
2019-06-20T03:34:36.903Z,92.20
2019-06-20T03:37:05.806Z,91.80
2019-06-20T03:39:34.666Z,91.90
2019-06-20T03:42:03.476Z,91.70
2019-06-20T03:44:32.392Z,91.70
2019-06-20T03:47:01.194Z,91.70
2019-06-20T03:49:31.558Z,91.40
2019-06-20T03:52:00.385Z,91.70
2019-06-20T03:54:29.259Z,91.20
2019-06-20T03:56:58.087Z,91.60
2019-06-20T03:59:26.940Z,90.80
2019-06-20T04:01:55.824Z,91.40
2019-06-20T04:04:24.658Z,91.50
2019-06-20T04:06:53.508Z,91.50
2019-06-20T04:09:22.352Z,91.70
2019-06-20T04:11:51.216Z,91.70
2019-06-20T04:14:20.026Z,91.50
2019-06-20T04:16:48.914Z,91.50
2019-06-20T04:19:17.783Z,91.50
2019-06-20T04:21:46.558Z,91.60
2019-06-20T04:24:15.486Z,91.30
2019-06-20T04:26:45.799Z,91.10
2019-06-20T04:29:14.872Z,91.40
2019-06-20T04:31:45.425Z,91.30
2019-06-20T04:34:17.063Z,91.40
2019-06-20T04:36:48.057Z,91.50
2019-06-20T04:39:19.577Z,91.10
2019-06-20T04:41:46.876Z,91.00
2019-06-20T04:44:16.959Z,91.50
2019-06-20T04:47:03.746Z,91.50
2019-06-20T04:49:32.552Z,91.20
2019-06-20T04:52:01.401Z,91.20
2019-06-20T04:54:30.244Z,90.40
2019-06-20T04:56:59.081Z,90.10
2019-06-20T04:59:27.963Z,90.00
2019-06-20T05:01:56.862Z,89.10
2019-06-20T05:04:25.797Z,89.30
2019-06-20T05:06:57.623Z,88.70
2019-06-20T05:09:26.563Z,88.40
2019-06-20T05:11:56.880Z,89.30
2019-06-20T05:14:26.452Z,90.00
2019-06-20T05:16:55.330Z,89.70
2019-06-20T05:19:24.198Z,90.00
2019-06-20T05:21:53.073Z,88.90
2019-06-20T05:24:25.374Z,89.20
2019-06-20T05:26:52.418Z,89.20
2019-06-20T05:29:21.240Z,89.10
2019-06-20T05:31:51.440Z,89.60
2019-06-20T05:34:22.048Z,90.30
2019-06-20T05:36:52.521Z,90.30
2019-06-20T05:39:22.866Z,89.40
2019-06-20T05:41:51.855Z,87.60
2019-06-20T05:44:20.714Z,88.50
2019-06-20T05:46:50.295Z,87.80
2019-06-20T05:49:19.137Z,88.20
2019-06-20T05:51:47.966Z,88.20
2019-06-20T05:54:16.833Z,88.50
2019-06-20T05:56:45.742Z,87.50
2019-06-20T05:59:14.633Z,88.10
2019-06-20T06:01:45.162Z,88.10
2019-06-20T06:04:14.114Z,87.80
2019-06-20T06:06:43.012Z,87.50
2019-06-20T06:09:13.372Z,88.70
2019-06-20T06:11:42.286Z,89.20
2019-06-20T06:14:11.160Z,87.10
2019-06-20T06:16:43.867Z,88.20
2019-06-20T06:19:12.410Z,87.80
2019-06-20T06:21:41.199Z,86.60
2019-06-20T06:24:10.090Z,86.50
2019-06-20T06:26:38.972Z,85.30
2019-06-20T06:29:07.921Z,86.80
2019-06-20T06:31:36.830Z,86.60
2019-06-20T06:34:05.807Z,86.30
2019-06-20T06:36:34.584Z,86.70
2019-06-20T06:39:04.551Z,86.40
2019-06-20T06:41:34.722Z,85.60
2019-06-20T06:44:03.587Z,87.10
2019-06-20T06:46:43.592Z,87.20
2019-06-20T06:49:06.527Z,86.00
2019-06-20T06:51:38.153Z,85.50
2019-06-20T06:54:06.089Z,84.00
2019-06-20T06:56:35.872Z,83.70
2019-06-20T06:59:04.811Z,83.90
2019-06-20T07:01:35.166Z,84.30
2019-06-20T07:04:04.110Z,84.40
2019-06-20T07:06:32.991Z,83.70
2019-06-20T07:09:01.855Z,83.20
2019-06-20T07:11:30.811Z,83.10
2019-06-20T07:13:59.543Z,83.50
2019-06-20T07:16:29.395Z,84.30
2019-06-20T07:18:58.208Z,81.90
2019-06-20T07:21:28.408Z,81.00
2019-06-20T07:23:57.220Z,79.00
2019-06-20T07:26:27.512Z,76.10
2019-06-20T07:28:56.327Z,74.20
2019-06-20T07:31:25.274Z,71.90
2019-06-20T07:33:54.121Z,72.60
2019-06-20T07:36:26.281Z,73.30
2019-06-20T07:38:55.622Z,73.00
2019-06-20T07:41:24.464Z,72.90
2019-06-20T07:43:53.456Z,72.90
2019-06-20T07:46:23.094Z,73.80
2019-06-20T07:48:51.935Z,71.30
2019-06-20T07:51:20.744Z,73.40
2019-06-20T07:53:50.813Z,73.20
2019-06-20T07:56:19.539Z,71.50
2019-06-20T07:58:49.379Z,71.30
2019-06-20T08:01:18.166Z,73.10
2019-06-20T08:03:47.673Z,72.80
2019-06-20T08:06:17.616Z,73.20
2019-06-20T08:08:47.972Z,72.80
2019-06-20T08:11:16.900Z,74.30
2019-06-20T08:13:45.768Z,74.40
2019-06-20T08:16:14.696Z,76.10
2019-06-20T08:18:43.578Z,76.50
2019-06-20T08:21:12.496Z,76.50
2019-06-20T08:23:41.464Z,76.70
2019-06-20T08:26:12.675Z,76.20
2019-06-20T08:28:41.480Z,75.10
2019-06-20T08:31:10.767Z,75.10
2019-06-20T08:33:39.713Z,74.10
2019-06-20T08:36:08.549Z,74.40
2019-06-20T08:38:37.598Z,72.70
2019-06-20T08:41:06.793Z,70.40
2019-06-20T08:43:35.658Z,67.60
2019-06-20T08:46:09.932Z,69.10
2019-06-20T08:48:37.676Z,67.60
2019-06-20T08:51:06.625Z,67.20
2019-06-20T08:53:36.226Z,65.60
2019-06-20T08:56:05.597Z,66.00
2019-06-20T08:58:34.527Z,62.10
2019-06-20T09:03:37.733Z,65.40
2019-06-20T09:06:07.676Z,64.30
2019-06-20T09:08:37.238Z,64.70
2019-06-20T09:11:06.035Z,64.60
2019-06-20T09:13:34.869Z,64.50
2019-06-20T09:16:04.722Z,59.90
2019-06-20T09:18:33.643Z,62.30
2019-06-20T09:21:02.489Z,62.10
2019-06-20T09:23:31.423Z,61.80
2019-06-20T09:26:01.894Z,63.00
2019-06-20T09:28:31.179Z,63.50
2019-06-20T09:31:00.042Z,64.80
2019-06-20T09:33:30.292Z,62.80
2019-06-20T09:35:59.694Z,61.80
2019-06-20T09:38:28.763Z,58.60
2019-06-20T09:40:59.826Z,54.90
2019-06-20T09:43:30.405Z,54.50
2019-06-20T09:45:59.309Z,53.60
2019-06-20T09:48:28.215Z,53.20
2019-06-20T09:50:57.035Z,53.20
2019-06-20T09:53:25.988Z,51.60
2019-06-20T09:55:55.817Z,50.00
2019-06-20T09:58:24.822Z,51.50
2019-06-20T10:00:55.030Z,54.20
2019-06-20T10:03:26.962Z,54.70
2019-06-20T10:05:56.659Z,56.40
2019-06-20T10:08:25.736Z,58.70
2019-06-20T10:10:54.659Z,59.60
2019-06-20T10:13:23.554Z,60.10
2019-06-20T10:15:53.530Z,58.20
2019-06-20T10:18:24.012Z,57.30
2019-06-20T10:20:53.507Z,54.50
2019-06-20T10:23:22.427Z,54.70
2019-06-20T10:25:53.605Z,53.80
2019-06-20T10:28:22.541Z,52.00
2019-06-20T10:30:51.398Z,50.80
2019-06-20T10:33:20.327Z,50.10
2019-06-20T10:35:50.368Z,51.70
2019-06-20T10:38:22.315Z,53.00
2019-06-20T10:40:52.066Z,54.50
2019-06-20T10:43:21.086Z,56.50
2019-06-20T10:45:50.604Z,57.70
2019-06-20T10:48:20.358Z,59.30
2019-06-20T10:50:51.837Z,59.10
2019-06-20T10:53:22.945Z,59.10
2019-06-20T10:55:51.446Z,58.60
2019-06-20T10:58:20.987Z,56.00
2019-06-20T11:00:50.395Z,50.30
2019-06-20T11:03:19.392Z,46.80
2019-06-20T11:05:56.900Z,43.90
2019-06-20T11:08:22.719Z,42.70
2019-06-20T11:10:51.530Z,37.50
2019-06-20T11:13:20.391Z,35.80
2019-06-20T11:15:49.269Z,32.70
2019-06-20T11:18:18.120Z,31.90
2019-06-20T11:20:47.083Z,29.50
2019-06-20T11:23:16.350Z,29.80
2019-06-20T11:25:46.656Z,28.40
2019-06-20T11:28:16.900Z,28.50
2019-06-20T11:30:59.633Z,27.60
2019-06-20T11:33:40.412Z,28.10
2019-06-20T11:39:05.165Z,25.80
2019-06-20T11:44:56.017Z,25.10
2019-06-20T11:47:47.410Z,27.40
2019-06-20T11:50:40.054Z,28.30
2019-06-20T11:53:38.491Z,29.00
2019-06-20T11:56:02.636Z,27.90
2019-06-20T11:58:33.111Z,29.00
2019-06-20T12:01:03.997Z,30.00
2019-06-20T12:03:32.450Z,30.30
2019-06-20T12:06:01.221Z,30.00
2019-06-20T12:08:30.113Z,30.00
2019-06-20T12:10:58.891Z,29.20
2019-06-20T12:13:29.333Z,31.10
2019-06-20T12:15:59.216Z,32.40
2019-06-20T12:18:28.046Z,37.60
2019-06-20T12:20:56.929Z,39.80
2019-06-20T12:23:25.711Z,41.90
2019-06-20T12:25:55.215Z,39.80
2019-06-20T12:28:24.655Z,40.50
2019-06-20T12:30:54.132Z,42.80
2019-06-20T12:33:24.669Z,42.90
2019-06-20T12:35:54.578Z,43.80
2019-06-20T12:38:23.476Z,47.10
2019-06-20T12:40:52.315Z,45.90
2019-06-20T12:43:21.838Z,48.10
2019-06-20T12:45:51.715Z,52.10
2019-06-20T12:48:20.703Z,52.10
2019-06-20T12:50:49.627Z,52.30
2019-06-20T12:53:18.598Z,53.20
2019-06-20T12:55:47.587Z,48.00
2019-06-20T12:58:16.560Z,40.90
2019-06-20T13:00:46.558Z,41.90
2019-06-20T13:03:15.772Z,39.10
2019-06-20T13:05:44.923Z,32.60
2019-06-20T13:08:13.916Z,31.80
2019-06-20T13:10:44.130Z,30.00
2019-06-20T13:13:13.195Z,34.40
2019-06-20T13:15:43.022Z,36.10
2019-06-20T13:18:11.873Z,37.90
2019-06-20T13:20:42.297Z,34.70
2019-06-20T13:23:11.368Z,30.90
2019-06-20T13:25:40.931Z,32.50
2019-06-20T13:28:09.911Z,34.30
2019-06-20T13:30:39.859Z,29.20
2019-06-20T13:33:09.162Z,29.00
2019-06-20T13:35:41.626Z,29.80
2019-06-20T13:38:11.371Z,29.90
2019-06-20T13:40:41.432Z,29.70
2019-06-20T13:43:10.460Z,29.50
2019-06-20T13:45:42.332Z,29.20
2019-06-20T13:48:11.386Z,30.60
2019-06-20T13:50:41.902Z,33.90
2019-06-20T13:53:10.814Z,36.10
2019-06-20T13:55:40.660Z,39.20
2019-06-20T13:58:10.071Z,42.00
2019-06-20T14:00:42.943Z,43.50
2019-06-20T14:03:12.383Z,43.80
2019-06-20T14:05:42.838Z,45.70
2019-06-20T14:08:11.841Z,44.80
2019-06-20T14:10:40.710Z,46.30
2019-06-20T14:13:18.693Z,47.90
2019-06-20T14:15:46.046Z,47.40
2019-06-20T14:18:13.329Z,47.90
2019-06-20T14:20:44.563Z,48.50
2019-06-20T14:23:12.857Z,50.30
2019-06-20T14:25:42.432Z,51.40
2019-06-20T14:28:12.166Z,50.70
2019-06-20T14:30:40.989Z,51.30
2019-06-20T14:33:09.838Z,51.30
2019-06-20T14:35:38.631Z,51.90
2019-06-20T14:38:07.398Z,51.70
2019-06-20T14:40:37.092Z,51.70
2019-06-20T14:43:07.623Z,52.00
2019-06-20T14:45:38.080Z,53.10
2019-06-20T14:48:08.528Z,52.90
2019-06-20T14:50:37.398Z,54.30
2019-06-20T14:53:06.175Z,53.60
2019-06-20T14:55:35.035Z,53.70
2019-06-20T14:58:03.880Z,54.10
2019-06-20T15:00:32.701Z,53.00
2019-06-20T15:03:01.572Z,52.70
2019-06-20T15:06:03.322Z,53.40
2019-06-20T15:11:26.043Z,53.30
2019-06-20T15:13:55.494Z,52.40
2019-06-20T15:16:24.497Z,52.90
2019-06-20T15:18:54.113Z,52.90
2019-06-20T15:21:25.312Z,52.00
2019-06-20T15:23:54.489Z,52.80
2019-06-20T15:26:27.543Z,53.30
2019-06-20T15:28:56.975Z,53.40
2019-06-20T15:31:25.932Z,54.00
2019-06-20T15:33:55.150Z,53.80
2019-06-20T15:36:24.946Z,54.00
2019-06-20T15:38:54.995Z,54.20
2019-06-20T15:41:25.103Z,54.70
2019-06-20T15:43:55.996Z,53.10
2019-06-20T15:46:26.454Z,54.20
2019-06-20T15:48:55.291Z,53.20
2019-06-20T15:51:24.134Z,52.40
2019-06-20T15:53:53.151Z,52.40
2019-06-20T15:56:22.940Z,51.90
2019-06-20T15:58:51.787Z,52.60
2019-06-20T16:01:20.602Z,51.60
2019-06-20T16:03:49.400Z,52.00
2019-06-20T16:06:19.377Z,53.60
2019-06-20T16:08:48.322Z,53.20
2019-06-20T16:11:26.652Z,52.10
2019-06-20T16:13:55.488Z,54.20
2019-06-20T16:16:24.379Z,52.40
2019-06-20T16:18:54.234Z,52.90
2019-06-20T16:21:25.029Z,51.50
2019-06-20T16:23:53.921Z,53.30
2019-06-20T16:26:22.784Z,52.10
2019-06-20T16:28:51.702Z,51.90
2019-06-20T16:31:26.769Z,51.00
2019-06-20T16:33:51.567Z,52.90
2019-06-20T16:36:21.878Z,53.00
2019-06-20T16:38:50.754Z,53.30
2019-06-20T16:41:19.732Z,53.40
2019-06-20T16:43:49.544Z,53.10
2019-06-20T16:46:18.993Z,53.10
2019-06-20T16:48:47.844Z,53.50
2019-06-20T16:51:18.308Z,52.80
2019-06-20T16:53:48.988Z,52.90
2019-06-20T16:56:17.727Z,52.50
2019-06-20T16:58:46.678Z,51.30
2019-06-20T17:01:16.947Z,52.20
2019-06-20T17:03:45.837Z,52.00
2019-06-20T17:06:14.736Z,52.00
2019-06-20T17:08:43.517Z,51.90
2019-06-20T17:11:13.658Z,53.30
2019-06-20T17:13:43.651Z,50.60
2019-06-20T17:16:12.501Z,53.60
2019-06-20T17:18:41.300Z,54.00
2019-06-20T17:21:10.199Z,54.70
2019-06-20T17:23:38.999Z,51.30
2019-06-20T17:26:08.926Z,53.80
2019-06-20T17:28:41.555Z,53.20
2019-06-20T17:31:11.552Z,52.40
2019-06-20T17:33:56.802Z,50.70
2019-06-20T17:36:18.252Z,50.40
2019-06-20T17:38:44.284Z,50.90
2019-06-20T17:41:13.241Z,51.30
2019-06-20T17:43:43.625Z,52.50
2019-06-20T17:46:12.507Z,51.90
2019-06-20T17:48:41.357Z,53.40
2019-06-20T17:51:10.729Z,54.40
2019-06-20T17:53:39.577Z,52.80
2019-06-20T17:56:11.388Z,51.60
2019-06-20T17:58:40.227Z,51.20
2019-06-20T18:01:09.167Z,52.60
2019-06-20T18:03:38.018Z,53.90
2019-06-20T18:06:06.906Z,54.30
2019-06-20T18:08:35.790Z,53.00
2019-06-20T18:11:04.649Z,53.10
2019-06-20T18:13:34.613Z,52.60
2019-06-20T18:16:04.547Z,54.70
2019-06-20T18:18:33.515Z,57.30
2019-06-20T18:21:04.248Z,55.20
2019-06-20T18:23:42.482Z,55.60
2019-06-20T18:26:11.561Z,55.20
2019-06-20T18:28:40.477Z,54.80
2019-06-20T18:31:09.941Z,55.40
2019-06-20T18:33:38.838Z,55.70
2019-06-20T18:36:07.747Z,55.80
2019-06-20T18:38:36.538Z,56.20
2019-06-20T18:41:05.432Z,55.70
2019-06-20T18:43:34.358Z,54.60
2019-06-20T18:46:03.255Z,55.20
2019-06-20T18:48:32.107Z,55.40
2019-06-20T18:51:00.939Z,54.50
2019-06-20T18:53:32.323Z,55.50
2019-06-20T18:56:01.176Z,55.60
2019-06-20T18:58:30.616Z,56.00
2019-06-20T19:01:00.940Z,56.10
2019-06-20T19:03:29.805Z,56.00
2019-06-20T19:05:58.707Z,57.90
2019-06-20T19:08:28.205Z,57.00
2019-06-20T19:10:58.559Z,58.50
2019-06-20T19:13:29.963Z,57.80
2019-06-20T19:16:00.720Z,58.50
2019-06-20T19:18:32.115Z,58.50
2019-06-20T19:21:00.963Z,56.50
2019-06-20T19:23:29.885Z,58.40
2019-06-20T19:25:58.747Z,59.90
2019-06-20T19:28:27.633Z,58.00
2019-06-20T19:30:57.173Z,57.60
2019-06-20T19:33:26.055Z,58.80
2019-06-20T19:35:54.891Z,59.40
2019-06-20T19:38:23.722Z,59.80
2019-06-20T19:40:53.040Z,59.70
2019-06-20T19:43:21.993Z,60.60
2019-06-20T19:45:50.973Z,59.70
2019-06-20T19:48:21.791Z,59.20
2019-06-20T19:50:52.138Z,60.00
2019-06-20T19:53:22.364Z,60.10
2019-06-20T19:55:53.646Z,61.90
2019-06-20T19:58:26.236Z,61.60
2019-06-20T20:00:55.175Z,62.60
2019-06-20T20:03:24.011Z,62.10
2019-06-20T20:05:58.005Z,62.00
2019-06-20T20:08:25.675Z,62.10
2019-06-20T20:10:55.759Z,62.90
2019-06-20T20:13:28.535Z,62.20
2019-06-20T20:15:57.353Z,63.60
2019-06-20T20:18:26.262Z,62.90
2019-06-20T20:20:55.070Z,63.00
2019-06-20T20:23:26.928Z,62.90
2019-06-20T20:25:57.831Z,64.00
2019-06-20T20:28:27.383Z,63.50
2019-06-20T20:30:56.129Z,63.90
2019-06-20T20:33:25.008Z,65.10
2019-06-20T20:35:53.818Z,65.20
2019-06-20T20:38:22.679Z,65.00
2019-06-20T20:40:53.174Z,64.20
2019-06-20T20:43:22.055Z,65.00
2019-06-20T20:45:53.171Z,64.40
2019-06-20T20:48:21.957Z,64.50
2019-06-20T20:50:50.786Z,63.80
2019-06-20T20:53:19.564Z,66.00
2019-06-20T20:55:48.455Z,64.20
2019-06-20T20:58:17.409Z,66.00
2019-06-20T21:00:55.525Z,65.90
2019-06-20T21:03:24.351Z,64.70
2019-06-20T21:05:53.195Z,65.30
2019-06-20T21:08:22.101Z,65.60
2019-06-20T21:10:50.961Z,66.90
2019-06-20T21:13:22.083Z,66.00
2019-06-20T21:15:50.971Z,67.00
2019-06-20T21:18:19.875Z,65.70
2019-06-20T21:20:48.709Z,67.10
2019-06-20T21:23:17.660Z,66.70
2019-06-20T21:25:48.043Z,65.70
2019-06-20T21:28:16.999Z,67.60
2019-06-20T21:30:46.023Z,66.30
2019-06-20T21:33:14.773Z,66.90
2019-06-20T21:35:44.364Z,67.10
2019-06-20T21:38:13.317Z,66.90
2019-06-20T21:40:42.180Z,67.90
2019-06-20T21:43:11.013Z,68.40
2019-06-20T21:45:39.865Z,69.20
2019-06-20T21:48:09.030Z,69.50
2019-06-20T21:50:37.910Z,68.40
2019-06-20T21:53:06.678Z,68.90
2019-06-20T21:55:38.159Z,69.50
2019-06-20T21:58:07.003Z,68.00
2019-06-20T22:00:40.481Z,69.50
2019-06-20T22:03:10.463Z,69.70
2019-06-20T22:05:40.901Z,70.50
2019-06-20T22:08:29.963Z,69.50
2019-06-20T22:10:58.779Z,70.20
2019-06-20T22:13:30.339Z,70.40
2019-06-20T22:15:59.796Z,69.90
2019-06-20T22:18:28.567Z,69.60
2019-06-20T22:20:57.350Z,70.30
2019-06-20T22:23:28.915Z,70.80
2019-06-20T22:25:58.198Z,70.00
2019-06-20T22:28:28.533Z,70.00
2019-06-20T22:31:00.245Z,70.60
2019-06-20T22:33:29.050Z,70.60
2019-06-20T22:35:58.505Z,69.40
2019-06-20T22:38:27.555Z,70.10
2019-06-20T22:40:58.887Z,70.10
2019-06-20T22:43:27.666Z,70.50
2019-06-20T22:45:56.598Z,71.50
2019-06-20T22:48:25.388Z,71.90
2019-06-20T22:50:54.310Z,70.60
2019-06-20T22:53:23.098Z,70.80
2019-06-20T22:55:52.406Z,71.00
2019-06-20T22:58:23.863Z,70.60
2019-06-20T23:00:52.676Z,71.20
2019-06-20T23:03:23.876Z,71.10
2019-06-20T23:05:52.668Z,71.20
2019-06-20T23:08:21.537Z,71.00
2019-06-20T23:10:50.395Z,71.40
2019-06-20T23:13:19.850Z,71.00
2019-06-20T23:15:48.751Z,70.90
2019-06-20T23:18:17.620Z,71.40
2019-06-20T23:21:03.579Z,71.10
2019-06-20T23:23:17.004Z,71.80
2019-06-20T23:25:48.485Z,68.90
2019-06-20T23:28:23.856Z,72.20
2019-06-20T23:30:52.475Z,72.40
2019-06-20T23:33:21.295Z,72.40
2019-06-20T23:35:50.083Z,72.70
2019-06-20T23:38:18.993Z,73.90
2019-06-20T23:40:47.835Z,73.20
2019-06-20T23:43:17.268Z,73.40
2019-06-20T23:45:46.066Z,73.90
2019-06-20T23:48:15.067Z,73.30
2019-06-20T23:50:43.917Z,73.00
2019-06-20T23:53:14.419Z,73.60
2019-06-20T23:55:43.273Z,73.40
2019-06-20T23:58:12.127Z,74.20
